createdAt,value
2023-01-01T00:00:49.086Z,13.87
2023-01-01T00:03:16.246Z,13.98
2023-01-01T00:05:43.353Z,14.01
2023-01-01T00:08:10.478Z,13.93
2023-01-01T00:10:38.282Z,13.87
2023-01-01T00:13:05.417Z,13.96
2023-01-01T00:15:32.622Z,13.88
2023-01-01T00:18:00.146Z,14.05
2023-01-01T00:20:33.161Z,14.07
2023-01-01T00:23:02.468Z,13.85
2023-01-01T00:25:30.486Z,13.81
2023-01-01T00:27:57.547Z,13.81
2023-01-01T00:30:25.049Z,13.81
2023-01-01T00:32:54.580Z,13.85
2023-01-01T00:35:23.988Z,13.90
2023-01-01T00:37:51.355Z,13.91
2023-01-01T00:40:18.856Z,13.98
2023-01-01T00:42:46.104Z,13.96
2023-01-01T00:45:20.542Z,13.91
2023-01-01T00:47:49.792Z,13.91
2023-01-01T00:50:17.088Z,13.91
2023-01-01T00:52:44.259Z,14.03
2023-01-01T00:55:12.205Z,13.95
2023-01-01T00:57:39.365Z,14.02
2023-01-01T01:00:08.252Z,14.08
2023-01-01T01:02:35.599Z,14.18
2023-01-01T01:05:04.666Z,13.99
2023-01-01T01:07:37.041Z,14.04
2023-01-01T01:10:04.616Z,14.07
2023-01-01T01:12:33.055Z,14.03
2023-01-01T01:15:00.179Z,13.96
2023-01-01T01:17:27.308Z,14.00
2023-01-01T01:19:54.364Z,14.02
2023-01-01T01:22:27.807Z,14.03
2023-01-01T01:24:56.531Z,14.10
2023-01-01T01:27:24.000Z,14.01
2023-01-01T01:29:51.055Z,13.96
2023-01-01T01:32:18.284Z,13.92
2023-01-01T01:34:45.860Z,13.90
2023-01-01T01:37:13.221Z,13.93
2023-01-01T01:39:40.622Z,13.81
2023-01-01T01:42:08.036Z,13.92
2023-01-01T01:44:48.110Z,13.83
2023-01-01T01:47:16.682Z,13.76
2023-01-01T01:49:45.895Z,13.74
2023-01-01T01:52:13.592Z,13.73
2023-01-01T01:54:41.756Z,13.69
2023-01-01T01:57:11.602Z,13.64
2023-01-01T01:59:44.515Z,13.65
2023-01-01T02:02:37.692Z,13.64
2023-01-01T02:05:06.868Z,13.67
2023-01-01T02:07:35.169Z,13.70
2023-01-01T02:10:03.975Z,13.64
2023-01-01T02:12:31.438Z,13.63
2023-01-01T02:14:58.655Z,13.61
2023-01-01T02:17:45.336Z,13.61
2023-01-01T02:20:48.564Z,13.61
2023-01-01T02:23:36.877Z,13.53
2023-01-01T02:26:15.990Z,13.68
2023-01-01T02:29:03.508Z,13.59
2023-01-01T02:31:36.704Z,13.53
2023-01-01T02:34:09.230Z,13.56
2023-01-01T02:36:44.001Z,13.69
2023-01-01T02:39:11.465Z,13.64
2023-01-01T02:41:47.082Z,13.66
2023-01-01T02:44:14.357Z,13.55
2023-01-01T02:46:41.420Z,13.53
2023-01-01T02:49:10.836Z,13.59
2023-01-01T02:51:37.970Z,13.57
2023-01-01T02:54:36.469Z,13.56
2023-01-01T02:57:36.595Z,13.50
2023-01-01T03:00:31.505Z,13.52
2023-01-01T03:03:31.246Z,13.43
2023-01-01T03:06:30.034Z,13.49
2023-01-01T03:09:28.611Z,13.43
2023-01-01T03:12:10.851Z,13.49
2023-01-01T03:14:49.005Z,13.55
2023-01-01T03:17:49.901Z,13.47
2023-01-01T03:20:27.385Z,13.46
2023-01-01T03:23:03.742Z,13.56
2023-01-01T03:25:41.479Z,13.59
2023-01-01T03:28:17.262Z,13.44
2023-01-01T03:30:47.352Z,13.45
2023-01-01T03:33:28.680Z,13.43
2023-01-01T03:36:08.069Z,13.45
2023-01-01T03:38:43.070Z,13.42
2023-01-01T03:41:50.286Z,13.57
2023-01-01T03:44:48.995Z,13.51
2023-01-01T03:47:16.906Z,13.57
2023-01-01T03:49:44.731Z,13.58
2023-01-01T03:52:27.334Z,13.50
2023-01-01T03:55:37.410Z,13.41
2023-01-01T03:58:16.917Z,13.39
2023-01-01T04:00:58.868Z,13.40
2023-01-01T04:03:29.756Z,13.45
2023-01-01T04:05:56.950Z,13.38
2023-01-01T04:08:24.070Z,13.38
2023-01-01T04:10:57.977Z,13.29
2023-01-01T04:13:25.241Z,13.26
2023-01-01T04:15:52.460Z,13.26
2023-01-01T04:18:19.575Z,13.26
2023-01-01T04:20:46.674Z,13.17
2023-01-01T04:23:13.804Z,13.17
2023-01-01T04:25:40.984Z,13.13
2023-01-01T04:28:08.052Z,13.12
2023-01-01T04:33:04.107Z,12.97
2023-01-01T04:35:32.117Z,12.90
2023-01-01T04:38:00.568Z,12.85
2023-01-01T04:40:27.645Z,12.83
2023-01-01T04:42:54.910Z,12.71
2023-01-01T04:45:22.013Z,12.72
2023-01-01T04:47:49.207Z,12.70
2023-01-01T04:50:16.323Z,12.69
2023-01-01T04:52:43.426Z,12.64
2023-01-01T04:55:10.659Z,12.65
2023-01-01T04:57:37.744Z,12.59
2023-01-01T05:00:05.456Z,12.61
2023-01-01T05:02:32.640Z,12.57
2023-01-01T05:04:59.831Z,12.58
2023-01-01T05:07:26.955Z,12.54
2023-01-01T05:09:54.676Z,12.52
2023-01-01T05:12:21.739Z,12.52
2023-01-01T05:14:48.789Z,12.49
2023-01-01T05:17:15.865Z,12.49
2023-01-01T05:19:43.154Z,12.46
2023-01-01T05:22:11.132Z,12.45
2023-01-01T05:24:38.461Z,12.42
2023-01-01T05:27:05.796Z,12.39
2023-01-01T05:29:32.897Z,12.42
2023-01-01T05:31:59.990Z,12.43
2023-01-01T05:36:55.928Z,12.41
2023-01-01T05:39:23.161Z,12.36
2023-01-01T05:41:51.519Z,12.42
2023-01-01T05:44:19.332Z,12.40
2023-01-01T05:46:46.434Z,12.36
2023-01-01T05:49:13.775Z,12.38
2023-01-01T05:54:07.565Z,12.46
2023-01-01T05:56:34.682Z,12.41
2023-01-01T05:59:02.129Z,12.35
2023-01-01T06:01:31.143Z,12.35
2023-01-01T06:03:59.795Z,12.31
2023-01-01T06:06:31.210Z,12.30
2023-01-01T06:09:01.506Z,12.29
2023-01-01T06:11:29.494Z,12.26
2023-01-01T06:13:59.362Z,12.27
2023-01-01T06:16:29.028Z,12.25
2023-01-01T06:18:56.127Z,12.27
2023-01-01T06:21:26.230Z,12.31
2023-01-01T06:23:56.465Z,12.20
2023-01-01T06:26:30.306Z,12.18
2023-01-01T06:28:58.982Z,12.18
2023-01-01T06:31:26.855Z,12.16
2023-01-01T06:33:54.034Z,12.11
2023-01-01T06:36:24.444Z,12.11
2023-01-01T06:38:55.697Z,12.14
2023-01-01T06:41:25.561Z,12.12
2023-01-01T06:43:52.946Z,12.06
2023-01-01T06:46:23.197Z,12.05
2023-01-01T06:48:53.921Z,12.04
2023-01-01T06:51:24.320Z,12.00
2023-01-01T06:53:52.190Z,11.98
2023-01-01T06:56:20.266Z,11.94
2023-01-01T06:58:47.809Z,11.93
2023-01-01T07:01:27.342Z,11.92
2023-01-01T07:03:56.711Z,11.88
2023-01-01T07:06:25.834Z,11.88
2023-01-01T07:08:53.072Z,11.84
2023-01-01T07:11:20.376Z,11.85
2023-01-01T07:13:47.571Z,11.83
2023-01-01T07:16:15.393Z,11.81
2023-01-01T07:18:42.931Z,11.77
2023-01-01T07:21:53.159Z,11.77
2023-01-01T07:24:21.024Z,11.77
2023-01-01T07:26:50.404Z,11.74
2023-01-01T07:29:17.825Z,11.68
2023-01-01T07:31:45.526Z,11.66
2023-01-01T07:34:19.160Z,11.65
2023-01-01T07:36:46.716Z,11.64
2023-01-01T07:39:13.841Z,11.60
2023-01-01T07:41:41.246Z,11.60
2023-01-01T07:44:08.371Z,11.55
2023-01-01T07:46:37.232Z,11.50
2023-01-01T07:49:04.919Z,11.47
2023-01-01T07:51:32.009Z,11.48
2023-01-01T07:54:05.759Z,11.45
2023-01-01T07:56:35.601Z,11.44
2023-01-01T07:59:02.717Z,11.43
2023-01-01T08:01:29.927Z,11.36
2023-01-01T08:03:57.081Z,11.34
2023-01-01T08:06:24.182Z,11.31
2023-01-01T08:08:51.243Z,11.29
2023-01-01T08:11:18.369Z,11.28
2023-01-01T08:13:45.497Z,11.24
2023-01-01T08:16:12.813Z,11.22
2023-01-01T08:18:40.040Z,11.19
2023-01-01T08:21:08.925Z,11.15
2023-01-01T08:23:35.974Z,11.12
2023-01-01T08:26:04.084Z,11.10
2023-01-01T08:28:31.872Z,11.12
2023-01-01T08:31:00.128Z,11.05
2023-01-01T08:33:29.572Z,11.03
2023-01-01T08:35:56.782Z,11.05
2023-01-01T08:38:23.918Z,11.03
2023-01-01T08:40:50.984Z,10.98
2023-01-01T08:43:18.091Z,10.97
2023-01-01T08:45:46.027Z,10.99
2023-01-01T08:48:13.147Z,11.03
2023-01-01T08:50:40.282Z,11.03
2023-01-01T08:53:07.360Z,11.05
2023-01-01T08:55:35.310Z,11.05
2023-01-01T08:58:07.475Z,11.06
2023-01-01T09:00:34.573Z,11.04
2023-01-01T09:03:01.834Z,11.03
2023-01-01T09:05:28.966Z,11.04
2023-01-01T09:07:56.081Z,11.05
2023-01-01T09:10:23.218Z,11.05
2023-01-01T09:12:50.339Z,11.06
2023-01-01T09:15:17.909Z,11.10
2023-01-01T09:17:45.000Z,11.08
2023-01-01T09:20:12.201Z,11.12
2023-01-01T09:22:39.336Z,11.10
2023-01-01T09:25:06.657Z,11.13
2023-01-01T09:27:33.727Z,11.15
2023-01-01T09:30:00.871Z,11.18
2023-01-01T09:32:30.199Z,11.18
2023-01-01T09:34:58.258Z,11.22
2023-01-01T09:37:25.322Z,11.28
2023-01-01T09:39:52.837Z,11.34
2023-01-01T09:42:45.734Z,11.45
2023-01-01T09:45:36.239Z,11.58
2023-01-01T09:48:09.215Z,11.76
2023-01-01T09:50:43.065Z,12.06
2023-01-01T09:53:43.127Z,12.19
2023-01-01T09:56:19.042Z,12.40
2023-01-01T09:58:46.124Z,12.52
2023-01-01T10:01:59.716Z,12.91
2023-01-01T10:04:48.481Z,13.18
2023-01-01T10:07:41.892Z,13.03
2023-01-01T10:10:32.318Z,13.01
2023-01-01T10:13:21.229Z,12.95
2023-01-01T10:16:24.024Z,12.81
2023-01-01T10:18:57.468Z,12.61
2023-01-01T10:21:32.030Z,12.65
2023-01-01T10:24:33.516Z,12.54
2023-01-01T10:27:04.450Z,12.54
2023-01-01T10:29:44.981Z,12.56
2023-01-01T10:32:21.005Z,12.54
2023-01-01T10:34:49.864Z,12.57
2023-01-01T10:37:17.542Z,12.61
2023-01-01T10:39:47.123Z,12.91
2023-01-01T10:42:16.110Z,13.22
2023-01-01T10:44:44.103Z,13.59
2023-01-01T10:47:29.510Z,13.84
2023-01-01T10:50:07.452Z,13.86
2023-01-01T10:52:41.179Z,13.97
2023-01-01T10:55:26.295Z,13.86
2023-01-01T10:57:54.167Z,13.78
2023-01-01T11:00:29.012Z,13.57
2023-01-01T11:03:19.898Z,13.43
2023-01-01T11:06:34.166Z,13.24
2023-01-01T11:09:06.875Z,13.16
2023-01-01T11:11:46.315Z,13.04
2023-01-01T11:14:53.205Z,13.03
2023-01-01T11:17:26.709Z,13.00
2023-01-01T11:20:01.372Z,12.93
2023-01-01T11:22:38.368Z,12.93
2023-01-01T11:25:18.252Z,12.80
2023-01-01T11:27:45.741Z,12.84
2023-01-01T11:30:27.573Z,12.78
2023-01-01T11:33:04.330Z,12.73
2023-01-01T11:35:39.041Z,12.65
2023-01-01T11:38:06.191Z,12.69
2023-01-01T11:40:39.591Z,12.64
2023-01-01T11:43:08.503Z,12.51
2023-01-01T11:45:41.132Z,12.61
2023-01-01T11:48:34.891Z,12.52
2023-01-01T11:51:06.635Z,12.54
2023-01-01T11:53:43.230Z,12.49
2023-01-01T11:56:15.840Z,12.52
2023-01-01T11:58:57.636Z,12.55
2023-01-01T12:01:54.002Z,12.49
2023-01-01T12:04:56.885Z,12.55
2023-01-01T12:07:31.076Z,12.58
2023-01-01T12:10:13.138Z,12.57
2023-01-01T12:12:57.409Z,12.65
2023-01-01T12:15:47.665Z,12.68
2023-01-01T12:18:47.257Z,12.74
2023-01-01T12:21:26.345Z,12.82
2023-01-01T12:23:54.064Z,12.84
2023-01-01T12:26:43.905Z,12.90
2023-01-01T12:29:54.287Z,12.95
2023-01-01T12:32:49.287Z,13.01
2023-01-01T12:35:44.426Z,13.03
2023-01-01T12:38:47.342Z,12.97
2023-01-01T12:41:59.047Z,12.93
2023-01-01T12:44:57.385Z,12.93
2023-01-01T12:47:50.305Z,12.99
2023-01-01T12:50:45.647Z,12.97
2023-01-01T12:53:55.060Z,12.96
2023-01-01T12:57:06.388Z,12.85
2023-01-01T12:59:39.761Z,12.94
2023-01-01T13:02:35.150Z,12.88
2023-01-01T13:05:13.638Z,12.87
2023-01-01T13:07:45.226Z,12.84
2023-01-01T13:10:34.255Z,12.83
2023-01-01T13:13:02.768Z,12.83
2023-01-01T13:15:38.823Z,12.83
2023-01-01T13:18:15.914Z,12.83
2023-01-01T13:21:08.690Z,12.80
2023-01-01T13:23:35.806Z,12.83
2023-01-01T13:26:18.161Z,12.78
2023-01-01T13:29:05.452Z,12.77
2023-01-01T13:31:38.867Z,12.72
2023-01-01T13:34:31.412Z,12.73
2023-01-01T13:37:10.842Z,12.69
2023-01-01T13:40:13.391Z,12.64
2023-01-01T13:42:52.707Z,12.65
2023-01-01T13:49:26.215Z,12.55
2023-01-01T13:52:27.057Z,12.56
2023-01-01T13:55:18.447Z,12.51
2023-01-01T13:58:32.315Z,12.49
2023-01-01T14:01:50.214Z,12.46
2023-01-01T14:05:00.601Z,12.49
2023-01-01T14:07:53.491Z,12.44
2023-01-01T14:10:36.049Z,12.42
2023-01-01T14:13:16.939Z,12.41
2023-01-01T14:15:58.974Z,12.36
2023-01-01T14:18:50.419Z,12.36
2023-01-01T14:21:29.139Z,12.34
2023-01-01T14:24:04.785Z,12.35
2023-01-01T14:26:33.841Z,12.35
2023-01-01T14:29:07.324Z,12.33
2023-01-01T14:31:43.854Z,12.34
2023-01-01T14:34:31.218Z,12.34
2023-01-01T14:37:04.531Z,12.28
2023-01-01T14:39:35.053Z,12.28
2023-01-01T14:42:22.318Z,12.27
2023-01-01T14:44:51.062Z,12.28
2023-01-01T14:47:31.478Z,12.26
2023-01-01T14:50:16.994Z,12.25
2023-01-01T14:52:44.650Z,12.25
2023-01-01T14:55:19.802Z,12.20
2023-01-01T14:57:54.231Z,12.19
2023-01-01T15:00:25.929Z,12.20
2023-01-01T15:02:53.133Z,12.21
2023-01-01T15:05:23.226Z,12.13
2023-01-01T15:08:02.382Z,12.18
2023-01-01T15:10:31.563Z,12.13
2023-01-01T15:12:59.428Z,12.13
2023-01-01T15:15:39.883Z,12.11
2023-01-01T15:18:40.139Z,12.09
2023-01-01T15:21:37.308Z,12.06
2023-01-01T15:24:09.260Z,12.07
2023-01-01T15:26:51.143Z,12.07
2023-01-01T15:29:29.416Z,12.00
2023-01-01T15:32:03.486Z,12.03
2023-01-01T15:34:59.775Z,12.00
2023-01-01T15:37:36.532Z,12.01
2023-01-01T15:40:23.466Z,11.95
2023-01-01T15:42:59.818Z,11.92
2023-01-01T15:45:28.668Z,11.91
2023-01-01T15:48:10.472Z,11.90
2023-01-01T15:51:21.514Z,11.90
2023-01-01T15:53:50.915Z,11.84
2023-01-01T15:56:19.290Z,11.86
2023-01-01T15:59:09.196Z,11.86
2023-01-01T16:01:40.032Z,11.81
2023-01-01T16:04:29.343Z,11.83
2023-01-01T16:06:58.223Z,11.81
2023-01-01T16:09:25.519Z,11.84
2023-01-01T16:11:55.140Z,11.84
2023-01-01T16:14:22.980Z,11.82
2023-01-01T16:16:57.022Z,11.78
2023-01-01T16:19:25.043Z,11.81
2023-01-01T16:21:52.184Z,11.79
2023-01-01T16:24:20.420Z,11.81
2023-01-01T16:26:48.390Z,11.80
2023-01-01T16:29:15.699Z,11.78
2023-01-01T16:31:43.389Z,11.83
2023-01-01T16:34:14.218Z,11.79
2023-01-01T16:36:42.522Z,11.81
2023-01-01T16:39:09.700Z,11.77
2023-01-01T16:41:39.008Z,11.78
2023-01-01T16:44:06.068Z,11.77
2023-01-01T16:46:33.554Z,11.78
2023-01-01T16:49:00.883Z,11.80
2023-01-01T16:51:30.873Z,11.77
2023-01-01T16:54:00.745Z,11.76
2023-01-01T16:56:29.194Z,11.74
2023-01-01T16:59:02.863Z,11.79
2023-01-01T17:01:31.478Z,11.77
2023-01-01T17:03:59.017Z,11.79
2023-01-01T17:06:26.101Z,11.78
2023-01-01T17:08:53.648Z,11.78
2023-01-01T17:11:22.481Z,11.79
2023-01-01T17:13:49.612Z,11.77
2023-01-01T17:16:25.480Z,11.81
2023-01-01T17:21:44.365Z,11.76
2023-01-01T17:24:11.437Z,11.77
2023-01-01T17:26:38.784Z,11.73
2023-01-01T17:29:07.434Z,11.77
2023-01-01T17:31:35.023Z,11.77
2023-01-01T17:34:02.389Z,11.75
2023-01-01T17:36:29.561Z,11.74
2023-01-01T17:38:57.371Z,11.67
2023-01-01T17:41:24.502Z,11.68
2023-01-01T17:43:52.900Z,11.61
2023-01-01T17:46:30.976Z,11.58
2023-01-01T17:49:01.165Z,11.57
2023-01-01T17:51:28.814Z,11.53
2023-01-01T17:53:57.416Z,11.52
2023-01-01T17:56:25.463Z,11.51
2023-01-01T17:58:54.152Z,11.43
2023-01-01T18:01:24.640Z,11.30
2023-01-01T18:03:56.295Z,11.30
2023-01-01T18:06:23.495Z,11.23
2023-01-01T18:08:56.434Z,11.18
2023-01-01T18:11:25.540Z,11.14
2023-01-01T18:13:52.650Z,11.12
2023-01-01T18:16:21.020Z,11.11
2023-01-01T18:18:48.109Z,11.09
2023-01-01T18:21:20.701Z,11.04
2023-01-01T18:23:49.990Z,11.06
2023-01-01T18:26:18.035Z,11.05
2023-01-01T18:28:45.168Z,11.03
2023-01-01T18:31:16.757Z,11.02
2023-01-01T18:33:46.679Z,11.03
2023-01-01T18:36:18.350Z,10.98
2023-01-01T18:39:06.895Z,10.98
2023-01-01T18:42:02.047Z,10.96
2023-01-01T18:44:31.274Z,10.95
2023-01-01T18:47:13.466Z,10.90
2023-01-01T18:50:13.511Z,10.91
2023-01-01T18:52:40.714Z,10.92
2023-01-01T18:55:10.733Z,10.89
2023-01-01T18:57:40.293Z,10.88
2023-01-01T19:00:19.716Z,10.86
2023-01-01T19:02:56.508Z,10.87
2023-01-01T19:05:32.957Z,10.84
2023-01-01T19:08:08.638Z,10.85
2023-01-01T19:10:40.901Z,10.85
2023-01-01T19:13:31.238Z,10.82
2023-01-01T19:16:12.101Z,10.84
2023-01-01T19:18:43.930Z,10.83
2023-01-01T19:21:10.905Z,10.83
2023-01-01T19:23:56.708Z,10.83
2023-01-01T19:26:36.657Z,10.83
2023-01-01T19:29:15.777Z,10.83
2023-01-01T19:31:43.914Z,10.83
2023-01-01T19:34:11.230Z,10.84
2023-01-01T19:36:38.542Z,10.81
2023-01-01T19:39:06.344Z,10.80
2023-01-01T19:41:34.017Z,10.82
2023-01-01T19:44:01.117Z,10.81
2023-01-01T19:46:28.499Z,10.80
2023-01-01T19:48:55.838Z,10.80
2023-01-01T19:51:23.147Z,10.79
2023-01-01T19:53:52.019Z,10.84
2023-01-01T19:56:19.322Z,10.82
2023-01-01T19:58:47.228Z,10.82
2023-01-01T20:01:15.139Z,10.80
2023-01-01T20:03:54.049Z,10.80
2023-01-01T20:06:21.670Z,10.81
2023-01-01T20:08:48.734Z,10.78
2023-01-01T20:11:15.850Z,10.83
2023-01-01T20:13:43.167Z,10.80
2023-01-01T20:16:10.300Z,10.81
2023-01-01T20:18:37.453Z,10.83
2023-01-01T20:21:26.384Z,10.79
2023-01-01T20:23:54.779Z,10.83
2023-01-01T20:26:23.661Z,10.81
2023-01-01T20:29:09.684Z,10.81
2023-01-01T20:31:37.290Z,10.79
2023-01-01T20:34:05.088Z,10.80
2023-01-01T20:36:50.701Z,10.81
2023-01-01T20:39:17.772Z,10.81
2023-01-01T20:41:45.095Z,10.79
2023-01-01T20:44:12.171Z,10.79
2023-01-01T20:46:39.223Z,10.79
2023-01-01T20:49:06.520Z,10.79
2023-01-01T20:51:34.222Z,10.78
2023-01-01T20:54:01.296Z,10.81
2023-01-01T20:56:28.374Z,10.78
2023-01-01T20:59:01.929Z,10.77
2023-01-01T21:01:32.273Z,10.79
2023-01-01T21:03:59.464Z,10.80
2023-01-01T21:06:26.712Z,10.77
2023-01-01T21:08:55.714Z,10.76
2023-01-01T21:11:22.920Z,10.78
2023-01-01T21:13:50.207Z,10.76
2023-01-01T21:16:33.135Z,10.79
2023-01-01T21:19:02.932Z,10.76
2023-01-01T21:21:52.462Z,10.75
2023-01-01T21:24:22.618Z,10.76
2023-01-01T21:27:07.887Z,10.77
2023-01-01T21:29:44.099Z,10.75
2023-01-01T21:32:41.387Z,10.73
2023-01-01T21:35:30.543Z,10.75
2023-01-01T21:37:59.745Z,10.77
2023-01-01T21:40:54.313Z,10.75
2023-01-01T21:43:45.126Z,10.79
2023-01-01T21:46:35.185Z,10.75
2023-01-01T21:49:07.960Z,10.77
2023-01-01T21:51:47.937Z,10.73
2023-01-01T21:54:36.513Z,10.74
2023-01-01T21:57:18.321Z,10.73
2023-01-01T21:59:48.815Z,10.76
2023-01-01T22:02:35.785Z,10.70
2023-01-01T22:05:29.630Z,10.70
2023-01-01T22:07:58.988Z,10.72
2023-01-01T22:10:34.531Z,10.70
2023-01-01T22:13:02.134Z,10.70
2023-01-01T22:15:36.750Z,10.74
2023-01-01T22:18:17.742Z,10.74
2023-01-01T22:20:46.535Z,10.75
2023-01-01T22:23:19.528Z,10.71
2023-01-01T22:25:47.543Z,10.72
2023-01-01T22:28:32.009Z,10.73
2023-01-01T22:31:01.200Z,10.73
2023-01-01T22:33:39.043Z,10.76
2023-01-01T22:36:34.053Z,10.75
2023-01-01T22:39:04.482Z,10.73
2023-01-01T22:41:31.579Z,10.71
2023-01-01T22:44:04.151Z,10.72
2023-01-01T22:46:40.546Z,10.75
2023-01-01T22:49:35.481Z,10.75
2023-01-01T22:52:04.381Z,10.77
2023-01-01T22:54:31.445Z,10.77
2023-01-01T22:56:58.595Z,10.82
2023-01-01T22:59:25.679Z,10.81
2023-01-01T23:01:52.867Z,10.85
2023-01-01T23:04:20.111Z,10.86
2023-01-01T23:06:47.330Z,10.87
2023-01-01T23:09:14.508Z,10.89
2023-01-01T23:11:41.565Z,10.89
2023-01-01T23:14:27.453Z,10.88
2023-01-01T23:16:54.572Z,10.90
2023-01-01T23:19:21.731Z,10.87
2023-01-01T23:21:48.941Z,10.86
2023-01-01T23:24:20.498Z,10.88
2023-01-01T23:26:48.868Z,10.88
2023-01-01T23:29:17.711Z,10.88
2023-01-01T23:31:45.615Z,10.86
2023-01-01T23:34:13.139Z,10.87
2023-01-01T23:36:42.589Z,10.88
2023-01-01T23:39:09.932Z,10.87
2023-01-01T23:41:36.984Z,10.86
2023-01-01T23:44:04.201Z,10.89
2023-01-01T23:46:34.642Z,10.90
2023-01-01T23:49:03.950Z,10.88
2023-01-01T23:51:32.333Z,10.89
2023-01-01T23:53:59.366Z,10.91
2023-01-01T23:56:26.494Z,10.93
2023-01-01T23:58:53.657Z,10.96
